sensor_id;sensor_type;location;lat;lon;timestamp;P1;durP1;ratioP1;P2;durP2;ratioP2
18740;SDS011;9499;52.472;13.448;2023-02-28T00:01:32;2.83;;;2.73;;
18740;SDS011;9499;52.472;13.448;2023-02-28T00:03:59;2.87;;;2.67;;
18740;SDS011;9499;52.472;13.448;2023-02-28T00:06:27;2.53;;;2.43;;
18740;SDS011;9499;52.472;13.448;2023-02-28T00:08:53;3.43;;;3.23;;
18740;SDS011;9499;52.472;13.448;2023-02-28T00:11:23;3.23;;;3.03;;
18740;SDS011;9499;52.472;13.448;2023-02-28T00:13:50;2.70;;;2.60;;
18740;SDS011;9499;52.472;13.448;2023-02-28T00:16:17;3.43;;;3.23;;
18740;SDS011;9499;52.472;13.448;2023-02-28T00:18:44;2.77;;;2.63;;
18740;SDS011;9499;52.472;13.448;2023-02-28T00:21:12;2.93;;;2.73;;
18740;SDS011;9499;52.472;13.448;2023-02-28T00:23:40;3.27;;;3.07;;
18740;SDS011;9499;52.472;13.448;2023-02-28T00:26:06;3.37;;;3.13;;
18740;SDS011;9499;52.472;13.448;2023-02-28T00:28:33;3.30;;;3.00;;
18740;SDS011;9499;52.472;13.448;2023-02-28T00:31:00;3.47;;;3.27;;
18740;SDS011;9499;52.472;13.448;2023-02-28T00:33:26;2.53;;;2.43;;
18740;SDS011;9499;52.472;13.448;2023-02-28T00:36:00;2.90;;;2.70;;
18740;SDS011;9499;52.472;13.448;2023-02-28T00:38:28;2.90;;;2.70;;
18740;SDS011;9499;52.472;13.448;2023-02-28T00:40:56;3.10;;;2.90;;
18740;SDS011;9499;52.472;13.448;2023-02-28T00:43:23;3.50;;;3.20;;
18740;SDS011;9499;52.472;13.448;2023-02-28T00:45:50;3.63;;;3.43;;
18740;SDS011;9499;52.472;13.448;2023-02-28T00:48:16;2.80;;;2.60;;
18740;SDS011;9499;52.472;13.448;2023-02-28T00:50:43;2.83;;;2.73;;
18740;SDS011;9499;52.472;13.448;2023-02-28T00:53:09;3.07;;;2.87;;
18740;SDS011;9499;52.472;13.448;2023-02-28T00:55:36;3.27;;;3.07;;
18740;SDS011;9499;52.472;13.448;2023-02-28T00:58:03;3.13;;;2.93;;
18740;SDS011;9499;52.472;13.448;2023-02-28T01:00:30;3.83;;;3.63;;
18740;SDS011;9499;52.472;13.448;2023-02-28T01:02:57;3.30;;;3.10;;
18740;SDS011;9499;52.472;13.448;2023-02-28T01:05:23;4.10;;;3.20;;
18740;SDS011;9499;52.472;13.448;2023-02-28T01:07:50;3.07;;;2.87;;
18740;SDS011;9499;52.472;13.448;2023-02-28T01:10:17;3.70;;;3.50;;
18740;SDS011;9499;52.472;13.448;2023-02-28T01:12:43;4.03;;;3.77;;
18740;SDS011;9499;52.472;13.448;2023-02-28T01:15:11;2.60;;;2.50;;
18740;SDS011;9499;52.472;13.448;2023-02-28T01:17:38;4.37;;;4.07;;
18740;SDS011;9499;52.472;13.448;2023-02-28T01:20:05;2.67;;;2.50;;
18740;SDS011;9499;52.472;13.448;2023-02-28T01:22:32;2.50;;;2.40;;
18740;SDS011;9499;52.472;13.448;2023-02-28T01:25:00;2.70;;;2.60;;
18740;SDS011;9499;52.472;13.448;2023-02-28T01:27:27;3.67;;;3.37;;
18740;SDS011;9499;52.472;13.448;2023-02-28T01:29:53;3.20;;;3.00;;
18740;SDS011;9499;52.472;13.448;2023-02-28T01:32:21;2.80;;;2.70;;
18740;SDS011;9499;52.472;13.448;2023-02-28T01:34:48;2.93;;;2.83;;
18740;SDS011;9499;52.472;13.448;2023-02-28T01:37:14;2.50;;;2.40;;
18740;SDS011;9499;52.472;13.448;2023-02-28T01:39:41;2.43;;;2.33;;
18740;SDS011;9499;52.472;13.448;2023-02-28T01:42:08;2.87;;;2.77;;
18740;SDS011;9499;52.472;13.448;2023-02-28T01:44:56;3.00;;;2.80;;
18740;SDS011;9499;52.472;13.448;2023-02-28T01:47:31;3.10;;;2.90;;
18740;SDS011;9499;52.472;13.448;2023-02-28T01:50:00;2.70;;;2.60;;
18740;SDS011;9499;52.472;13.448;2023-02-28T01:52:31;8.13;;;3.10;;
18740;SDS011;9499;52.472;13.448;2023-02-28T01:54:59;2.93;;;2.73;;
18740;SDS011;9499;52.472;13.448;2023-02-28T01:57:28;5.90;;;3.10;;
18740;SDS011;9499;52.472;13.448;2023-02-28T02:00:03;2.80;;;2.63;;
18740;SDS011;9499;52.472;13.448;2023-02-28T02:02:35;3.23;;;3.03;;
18740;SDS011;9499;52.472;13.448;2023-02-28T02:05:05;2.80;;;2.70;;
18740;SDS011;9499;52.472;13.448;2023-02-28T02:07:34;3.77;;;2.87;;
18740;SDS011;9499;52.472;13.448;2023-02-28T02:10:05;3.47;;;3.17;;
18740;SDS011;9499;52.472;13.448;2023-02-28T02:12:40;2.60;;;2.50;;
18740;SDS011;9499;52.472;13.448;2023-02-28T02:15:29;3.70;;;3.40;;
18740;SDS011;9499;52.472;13.448;2023-02-28T02:18:01;3.70;;;3.50;;
18740;SDS011;9499;52.472;13.448;2023-02-28T02:20:37;3.00;;;2.90;;
18740;SDS011;9499;52.472;13.448;2023-02-28T02:26:21;3.93;;;3.57;;
18740;SDS011;9499;52.472;13.448;2023-02-28T02:29:07;3.23;;;3.03;;
18740;SDS011;9499;52.472;13.448;2023-02-28T02:34:52;2.90;;;2.80;;
18740;SDS011;9499;52.472;13.448;2023-02-28T02:37:29;2.70;;;2.60;;
18740;SDS011;9499;52.472;13.448;2023-02-28T02:40:04;4.70;;;3.23;;
18740;SDS011;9499;52.472;13.448;2023-02-28T02:42:39;2.80;;;2.70;;
18740;SDS011;9499;52.472;13.448;2023-02-28T02:45:09;3.53;;;3.33;;
18740;SDS011;9499;52.472;13.448;2023-02-28T02:47:41;3.50;;;3.30;;
18740;SDS011;9499;52.472;13.448;2023-02-28T02:50:13;8.50;;;3.53;;
18740;SDS011;9499;52.472;13.448;2023-02-28T02:52:51;3.87;;;3.67;;
18740;SDS011;9499;52.472;13.448;2023-02-28T02:55:21;3.27;;;3.07;;
18740;SDS011;9499;52.472;13.448;2023-02-28T02:57:50;4.03;;;3.80;;
18740;SDS011;9499;52.472;13.448;2023-02-28T03:00:22;3.10;;;2.90;;
18740;SDS011;9499;52.472;13.448;2023-02-28T03:02:52;3.07;;;2.87;;
18740;SDS011;9499;52.472;13.448;2023-02-28T03:05:23;3.30;;;3.10;;
18740;SDS011;9499;52.472;13.448;2023-02-28T03:07:51;3.97;;;3.63;;
18740;SDS011;9499;52.472;13.448;2023-02-28T03:13:23;2.60;;;2.50;;
18740;SDS011;9499;52.472;13.448;2023-02-28T03:16:21;4.00;;;3.77;;
18740;SDS011;9499;52.472;13.448;2023-02-28T03:18:58;3.27;;;3.07;;
18740;SDS011;9499;52.472;13.448;2023-02-28T03:21:35;2.77;;;2.67;;
18740;SDS011;9499;52.472;13.448;2023-02-28T03:24:07;6.93;;;3.13;;
18740;SDS011;9499;52.472;13.448;2023-02-28T03:26:38;3.60;;;3.40;;
18740;SDS011;9499;52.472;13.448;2023-02-28T03:29:08;3.13;;;3.03;;
18740;SDS011;9499;52.472;13.448;2023-02-28T03:31:43;3.07;;;2.90;;
18740;SDS011;9499;52.472;13.448;2023-02-28T03:34:15;2.97;;;2.83;;
18740;SDS011;9499;52.472;13.448;2023-02-28T03:36:47;2.50;;;2.40;;
18740;SDS011;9499;52.472;13.448;2023-02-28T03:39:19;3.20;;;3.00;;
18740;SDS011;9499;52.472;13.448;2023-02-28T03:41:51;3.27;;;3.07;;
18740;SDS011;9499;52.472;13.448;2023-02-28T03:44:23;3.37;;;3.17;;
18740;SDS011;9499;52.472;13.448;2023-02-28T03:46:56;2.93;;;2.77;;
18740;SDS011;9499;52.472;13.448;2023-02-28T03:49:27;2.83;;;2.73;;
18740;SDS011;9499;52.472;13.448;2023-02-28T03:51:59;3.23;;;3.13;;
18740;SDS011;9499;52.472;13.448;2023-02-28T03:54:29;4.27;;;4.07;;
18740;SDS011;9499;52.472;13.448;2023-02-28T03:56:59;3.07;;;2.97;;
18740;SDS011;9499;52.472;13.448;2023-02-28T03:59:32;2.93;;;2.73;;
18740;SDS011;9499;52.472;13.448;2023-02-28T04:02:02;3.67;;;3.47;;
18740;SDS011;9499;52.472;13.448;2023-02-28T04:04:28;2.50;;;2.40;;
18740;SDS011;9499;52.472;13.448;2023-02-28T04:07:02;2.83;;;2.73;;
18740;SDS011;9499;52.472;13.448;2023-02-28T04:09:29;3.80;;;3.50;;
18740;SDS011;9499;52.472;13.448;2023-02-28T04:11:56;2.83;;;2.70;;
18740;SDS011;9499;52.472;13.448;2023-02-28T04:14:22;2.90;;;2.80;;
18740;SDS011;9499;52.472;13.448;2023-02-28T04:16:49;3.83;;;3.57;;
18740;SDS011;9499;52.472;13.448;2023-02-28T04:19:17;3.50;;;3.30;;
18740;SDS011;9499;52.472;13.448;2023-02-28T04:21:44;3.17;;;3.07;;
18740;SDS011;9499;52.472;13.448;2023-02-28T04:24:14;2.93;;;2.83;;
18740;SDS011;9499;52.472;13.448;2023-02-28T04:26:43;3.93;;;3.73;;
18740;SDS011;9499;52.472;13.448;2023-02-28T04:29:11;2.83;;;2.67;;
18740;SDS011;9499;52.472;13.448;2023-02-28T04:31:39;3.10;;;2.97;;
18740;SDS011;9499;52.472;13.448;2023-02-28T04:34:06;2.93;;;2.83;;
18740;SDS011;9499;52.472;13.448;2023-02-28T04:36:32;3.40;;;3.20;;
18740;SDS011;9499;52.472;13.448;2023-02-28T04:38:59;5.07;;;3.43;;
18740;SDS011;9499;52.472;13.448;2023-02-28T04:41:27;3.47;;;3.27;;
18740;SDS011;9499;52.472;13.448;2023-02-28T04:43:53;3.10;;;2.90;;
18740;SDS011;9499;52.472;13.448;2023-02-28T04:46:21;3.23;;;2.93;;
18740;SDS011;9499;52.472;13.448;2023-02-28T04:48:48;3.07;;;2.87;;
18740;SDS011;9499;52.472;13.448;2023-02-28T04:51:16;3.03;;;2.93;;
18740;SDS011;9499;52.472;13.448;2023-02-28T04:53:44;2.93;;;2.77;;
18740;SDS011;9499;52.472;13.448;2023-02-28T04:56:12;2.60;;;2.50;;
18740;SDS011;9499;52.472;13.448;2023-02-28T04:58:40;15.83;;;4.63;;
18740;SDS011;9499;52.472;13.448;2023-02-28T05:01:15;5.03;;;4.00;;
18740;SDS011;9499;52.472;13.448;2023-02-28T05:03:44;3.17;;;2.97;;
18740;SDS011;9499;52.472;13.448;2023-02-28T05:06:11;3.63;;;3.43;;
18740;SDS011;9499;52.472;13.448;2023-02-28T05:08:38;3.47;;;3.27;;
18740;SDS011;9499;52.472;13.448;2023-02-28T05:11:06;4.97;;;3.30;;
18740;SDS011;9499;52.472;13.448;2023-02-28T05:13:37;2.60;;;2.50;;
18740;SDS011;9499;52.472;13.448;2023-02-28T05:16:05;5.43;;;3.13;;
18740;SDS011;9499;52.472;13.448;2023-02-28T05:18:32;3.30;;;3.10;;
18740;SDS011;9499;52.472;13.448;2023-02-28T05:20:59;3.67;;;3.47;;
18740;SDS011;9499;52.472;13.448;2023-02-28T05:23:27;3.10;;;2.90;;
18740;SDS011;9499;52.472;13.448;2023-02-28T05:25:53;2.80;;;2.70;;
18740;SDS011;9499;52.472;13.448;2023-02-28T05:28:20;3.33;;;3.13;;
18740;SDS011;9499;52.472;13.448;2023-02-28T05:30:47;3.00;;;2.80;;
18740;SDS011;9499;52.472;13.448;2023-02-28T05:33:14;2.60;;;2.50;;
18740;SDS011;9499;52.472;13.448;2023-02-28T05:35:41;3.20;;;3.00;;
18740;SDS011;9499;52.472;13.448;2023-02-28T05:38:08;3.63;;;3.43;;
18740;SDS011;9499;52.472;13.448;2023-02-28T05:40:35;3.20;;;3.00;;
18740;SDS011;9499;52.472;13.448;2023-02-28T05:43:03;3.10;;;2.90;;
18740;SDS011;9499;52.472;13.448;2023-02-28T05:45:30;3.27;;;3.10;;
18740;SDS011;9499;52.472;13.448;2023-02-28T05:47:56;3.53;;;3.33;;
18740;SDS011;9499;52.472;13.448;2023-02-28T05:50:24;3.27;;;3.07;;
18740;SDS011;9499;52.472;13.448;2023-02-28T05:52:51;3.27;;;3.07;;
18740;SDS011;9499;52.472;13.448;2023-02-28T05:55:18;4.10;;;3.90;;
18740;SDS011;9499;52.472;13.448;2023-02-28T05:57:45;4.30;;;4.10;;
18740;SDS011;9499;52.472;13.448;2023-02-28T06:00:12;3.13;;;2.93;;
18740;SDS011;9499;52.472;13.448;2023-02-28T06:02:40;2.80;;;2.70;;
18740;SDS011;9499;52.472;13.448;2023-02-28T06:05:21;3.70;;;3.50;;
18740;SDS011;9499;52.472;13.448;2023-02-28T06:07:49;3.67;;;3.47;;
18740;SDS011;9499;52.472;13.448;2023-02-28T06:10:15;2.67;;;2.57;;
18740;SDS011;9499;52.472;13.448;2023-02-28T06:12:42;3.37;;;3.20;;
18740;SDS011;9499;52.472;13.448;2023-02-28T06:15:10;3.30;;;3.10;;
18740;SDS011;9499;52.472;13.448;2023-02-28T06:17:39;3.60;;;3.40;;
18740;SDS011;9499;52.472;13.448;2023-02-28T06:20:06;3.63;;;3.43;;
18740;SDS011;9499;52.472;13.448;2023-02-28T06:22:34;2.90;;;2.80;;
18740;SDS011;9499;52.472;13.448;2023-02-28T06:25:02;3.20;;;3.10;;
18740;SDS011;9499;52.472;13.448;2023-02-28T06:27:30;4.17;;;3.33;;
18740;SDS011;9499;52.472;13.448;2023-02-28T06:29:57;4.73;;;4.00;;
18740;SDS011;9499;52.472;13.448;2023-02-28T06:32:23;3.53;;;3.23;;
18740;SDS011;9499;52.472;13.448;2023-02-28T06:34:53;3.60;;;3.40;;
18740;SDS011;9499;52.472;13.448;2023-02-28T06:37:22;4.93;;;3.47;;
18740;SDS011;9499;52.472;13.448;2023-02-28T06:39:51;3.07;;;2.93;;
18740;SDS011;9499;52.472;13.448;2023-02-28T06:42:19;3.80;;;3.50;;
18740;SDS011;9499;52.472;13.448;2023-02-28T06:44:46;3.50;;;3.20;;
18740;SDS011;9499;52.472;13.448;2023-02-28T06:47:13;6.53;;;5.93;;
18740;SDS011;9499;52.472;13.448;2023-02-28T06:49:40;4.70;;;4.07;;
18740;SDS011;9499;52.472;13.448;2023-02-28T06:52:06;2.60;;;2.50;;
18740;SDS011;9499;52.472;13.448;2023-02-28T06:54:35;3.93;;;3.73;;
18740;SDS011;9499;52.472;13.448;2023-02-28T06:57:02;2.83;;;2.73;;
18740;SDS011;9499;52.472;13.448;2023-02-28T06:59:31;3.43;;;3.23;;
18740;SDS011;9499;52.472;13.448;2023-02-28T07:01:57;3.10;;;2.90;;
18740;SDS011;9499;52.472;13.448;2023-02-28T07:04:24;2.97;;;2.87;;
18740;SDS011;9499;52.472;13.448;2023-02-28T07:06:50;3.80;;;3.50;;
18740;SDS011;9499;52.472;13.448;2023-02-28T07:09:17;4.07;;;3.87;;
18740;SDS011;9499;52.472;13.448;2023-02-28T07:11:44;3.20;;;3.00;;
18740;SDS011;9499;52.472;13.448;2023-02-28T07:14:10;3.43;;;3.23;;
18740;SDS011;9499;52.472;13.448;2023-02-28T07:16:38;5.40;;;4.33;;
18740;SDS011;9499;52.472;13.448;2023-02-28T07:19:05;5.13;;;4.83;;
18740;SDS011;9499;52.472;13.448;2023-02-28T07:21:31;4.40;;;3.77;;
18740;SDS011;9499;52.472;13.448;2023-02-28T07:23:58;3.50;;;2.93;;
18740;SDS011;9499;52.472;13.448;2023-02-28T07:26:24;4.30;;;4.10;;
18740;SDS011;9499;52.472;13.448;2023-02-28T07:28:53;3.93;;;3.73;;
18740;SDS011;9499;52.472;13.448;2023-02-28T07:31:20;3.27;;;3.10;;
18740;SDS011;9499;52.472;13.448;2023-02-28T07:33:48;3.03;;;2.93;;
18740;SDS011;9499;52.472;13.448;2023-02-28T07:36:15;3.40;;;3.20;;
18740;SDS011;9499;52.472;13.448;2023-02-28T07:38:44;12.87;;;3.50;;
18740;SDS011;9499;52.472;13.448;2023-02-28T07:41:14;2.60;;;2.50;;
18740;SDS011;9499;52.472;13.448;2023-02-28T07:43:41;3.27;;;3.07;;
18740;SDS011;9499;52.472;13.448;2023-02-28T07:46:09;3.43;;;3.23;;
18740;SDS011;9499;52.472;13.448;2023-02-28T07:48:37;2.63;;;2.53;;
18740;SDS011;9499;52.472;13.448;2023-02-28T07:51:08;3.87;;;3.67;;
18740;SDS011;9499;52.472;13.448;2023-02-28T07:53:35;3.23;;;3.03;;
18740;SDS011;9499;52.472;13.448;2023-02-28T07:56:02;3.33;;;3.13;;
18740;SDS011;9499;52.472;13.448;2023-02-28T07:58:29;3.40;;;3.20;;
18740;SDS011;9499;52.472;13.448;2023-02-28T08:00:57;3.07;;;2.87;;
18740;SDS011;9499;52.472;13.448;2023-02-28T08:03:30;3.67;;;3.47;;
18740;SDS011;9499;52.472;13.448;2023-02-28T08:05:56;2.70;;;2.60;;
18740;SDS011;9499;52.472;13.448;2023-02-28T08:08:24;3.63;;;3.43;;
18740;SDS011;9499;52.472;13.448;2023-02-28T08:10:54;4.27;;;3.87;;
18740;SDS011;9499;52.472;13.448;2023-02-28T08:13:20;3.40;;;3.20;;
18740;SDS011;9499;52.472;13.448;2023-02-28T08:15:49;3.67;;;3.47;;
18740;SDS011;9499;52.472;13.448;2023-02-28T08:18:16;2.60;;;2.50;;
18740;SDS011;9499;52.472;13.448;2023-02-28T08:20:43;4.10;;;3.67;;
18740;SDS011;9499;52.472;13.448;2023-02-28T08:23:09;3.83;;;3.53;;
18740;SDS011;9499;52.472;13.448;2023-02-28T08:25:37;2.70;;;2.60;;
18740;SDS011;9499;52.472;13.448;2023-02-28T08:28:04;3.10;;;2.80;;
18740;SDS011;9499;52.472;13.448;2023-02-28T08:30:30;3.40;;;3.20;;
18740;SDS011;9499;52.472;13.448;2023-02-28T08:32:57;5.93;;;3.37;;
18740;SDS011;9499;52.472;13.448;2023-02-28T08:35:26;3.23;;;3.03;;
18740;SDS011;9499;52.472;13.448;2023-02-28T08:37:53;2.97;;;2.77;;
18740;SDS011;9499;52.472;13.448;2023-02-28T08:40:20;3.33;;;3.07;;
18740;SDS011;9499;52.472;13.448;2023-02-28T08:42:48;2.80;;;2.70;;
18740;SDS011;9499;52.472;13.448;2023-02-28T08:45:15;3.23;;;3.03;;
18740;SDS011;9499;52.472;13.448;2023-02-28T08:47:42;4.37;;;4.03;;
18740;SDS011;9499;52.472;13.448;2023-02-28T08:50:09;3.23;;;3.03;;
18740;SDS011;9499;52.472;13.448;2023-02-28T08:52:36;4.03;;;3.23;;
18740;SDS011;9499;52.472;13.448;2023-02-28T08:55:03;2.60;;;2.50;;
18740;SDS011;9499;52.472;13.448;2023-02-28T08:57:30;3.50;;;3.30;;
18740;SDS011;9499;52.472;13.448;2023-02-28T08:59:59;2.77;;;2.67;;
18740;SDS011;9499;52.472;13.448;2023-02-28T09:02:26;6.60;;;3.37;;
18740;SDS011;9499;52.472;13.448;2023-02-28T09:04:53;3.03;;;2.83;;
18740;SDS011;9499;52.472;13.448;2023-02-28T09:07:20;3.87;;;3.50;;
18740;SDS011;9499;52.472;13.448;2023-02-28T09:09:46;2.73;;;2.63;;
18740;SDS011;9499;52.472;13.448;2023-02-28T09:12:23;2.80;;;2.60;;
18740;SDS011;9499;52.472;13.448;2023-02-28T09:14:50;2.77;;;2.57;;
18740;SDS011;9499;52.472;13.448;2023-02-28T09:17:18;2.40;;;2.30;;
18740;SDS011;9499;52.472;13.448;2023-02-28T09:19:47;2.43;;;2.23;;
18740;SDS011;9499;52.472;13.448;2023-02-28T09:22:14;3.90;;;2.53;;
18740;SDS011;9499;52.472;13.448;2023-02-28T09:24:41;3.83;;;3.63;;
18740;SDS011;9499;52.472;13.448;2023-02-28T09:27:09;2.60;;;2.40;;
18740;SDS011;9499;52.472;13.448;2023-02-28T09:29:38;2.40;;;2.30;;
18740;SDS011;9499;52.472;13.448;2023-02-28T09:32:05;2.70;;;2.60;;
18740;SDS011;9499;52.472;13.448;2023-02-28T09:34:33;2.57;;;2.47;;
18740;SDS011;9499;52.472;13.448;2023-02-28T09:37:02;2.50;;;2.40;;
18740;SDS011;9499;52.472;13.448;2023-02-28T09:39:29;2.50;;;2.40;;
18740;SDS011;9499;52.472;13.448;2023-02-28T09:41:56;3.17;;;2.97;;
18740;SDS011;9499;52.472;13.448;2023-02-28T09:44:26;2.40;;;2.30;;
18740;SDS011;9499;52.472;13.448;2023-02-28T09:46:58;2.53;;;2.33;;
18740;SDS011;9499;52.472;13.448;2023-02-28T09:49:28;2.50;;;2.40;;
18740;SDS011;9499;52.472;13.448;2023-02-28T09:52:04;2.30;;;2.20;;
18740;SDS011;9499;52.472;13.448;2023-02-28T09:54:34;2.10;;;2.00;;
18740;SDS011;9499;52.472;13.448;2023-02-28T09:57:05;2.23;;;2.13;;
18740;SDS011;9499;52.472;13.448;2023-02-28T09:59:37;2.30;;;2.20;;
18740;SDS011;9499;52.472;13.448;2023-02-28T10:02:15;2.30;;;2.20;;
18740;SDS011;9499;52.472;13.448;2023-02-28T10:04:52;2.40;;;2.30;;
18740;SDS011;9499;52.472;13.448;2023-02-28T10:07:30;2.40;;;2.30;;
18740;SDS011;9499;52.472;13.448;2023-02-28T10:10:14;2.53;;;2.33;;
18740;SDS011;9499;52.472;13.448;2023-02-28T10:12:45;2.10;;;2.00;;
18740;SDS011;9499;52.472;13.448;2023-02-28T10:15:14;2.10;;;2.00;;
18740;SDS011;9499;52.472;13.448;2023-02-28T10:17:43;2.23;;;2.10;;
18740;SDS011;9499;52.472;13.448;2023-02-28T10:20:15;2.50;;;2.30;;
18740;SDS011;9499;52.472;13.448;2023-02-28T10:22:50;2.20;;;2.00;;
18740;SDS011;9499;52.472;13.448;2023-02-28T10:25:20;2.27;;;2.17;;
18740;SDS011;9499;52.472;13.448;2023-02-28T10:27:49;3.13;;;2.93;;
18740;SDS011;9499;52.472;13.448;2023-02-28T10:30:18;2.47;;;2.30;;
18740;SDS011;9499;52.472;13.448;2023-02-28T10:32:47;2.73;;;2.53;;
18740;SDS011;9499;52.472;13.448;2023-02-28T10:35:20;2.73;;;2.53;;
18740;SDS011;9499;52.472;13.448;2023-02-28T10:37:49;2.00;;;1.90;;
18740;SDS011;9499;52.472;13.448;2023-02-28T10:40:26;1.90;;;1.80;;
18740;SDS011;9499;52.472;13.448;2023-02-28T10:42:57;1.90;;;1.80;;
18740;SDS011;9499;52.472;13.448;2023-02-28T10:45:25;3.60;;;2.30;;
18740;SDS011;9499;52.472;13.448;2023-02-28T10:47:55;2.07;;;1.97;;
18740;SDS011;9499;52.472;13.448;2023-02-28T10:50:28;2.47;;;2.27;;
18740;SDS011;9499;52.472;13.448;2023-02-28T10:53:05;2.43;;;2.23;;
18740;SDS011;9499;52.472;13.448;2023-02-28T10:55:40;2.30;;;2.10;;
18740;SDS011;9499;52.472;13.448;2023-02-28T10:58:17;2.67;;;2.47;;
18740;SDS011;9499;52.472;13.448;2023-02-28T11:00:47;2.97;;;2.30;;
18740;SDS011;9499;52.472;13.448;2023-02-28T11:03:22;1.80;;;1.70;;
18740;SDS011;9499;52.472;13.448;2023-02-28T11:05:53;2.20;;;2.00;;
18740;SDS011;9499;52.472;13.448;2023-02-28T11:08:20;2.07;;;1.87;;
18740;SDS011;9499;52.472;13.448;2023-02-28T11:10:47;2.27;;;2.07;;
18740;SDS011;9499;52.472;13.448;2023-02-28T11:13:20;2.90;;;2.70;;
18740;SDS011;9499;52.472;13.448;2023-02-28T11:15:51;1.80;;;1.70;;
18740;SDS011;9499;52.472;13.448;2023-02-28T11:18:21;2.10;;;1.90;;
18740;SDS011;9499;52.472;13.448;2023-02-28T11:20:53;2.80;;;1.90;;
18740;SDS011;9499;52.472;13.448;2023-02-28T11:23:21;1.90;;;1.80;;
18740;SDS011;9499;52.472;13.448;2023-02-28T11:25:51;1.80;;;1.70;;
18740;SDS011;9499;52.472;13.448;2023-02-28T11:28:26;1.90;;;1.80;;
18740;SDS011;9499;52.472;13.448;2023-02-28T11:31:00;2.60;;;2.40;;
18740;SDS011;9499;52.472;13.448;2023-02-28T11:33:32;1.70;;;1.60;;
18740;SDS011;9499;52.472;13.448;2023-02-28T11:36:12;1.70;;;1.60;;
18740;SDS011;9499;52.472;13.448;2023-02-28T11:38:42;2.57;;;2.37;;
18740;SDS011;9499;52.472;13.448;2023-02-28T11:41:13;1.50;;;1.40;;
18740;SDS011;9499;52.472;13.448;2023-02-28T11:43:53;2.20;;;2.00;;
18740;SDS011;9499;52.472;13.448;2023-02-28T11:46:33;1.97;;;1.80;;
18740;SDS011;9499;52.472;13.448;2023-02-28T11:49:10;3.10;;;2.80;;
18740;SDS011;9499;52.472;13.448;2023-02-28T11:51:51;1.87;;;1.77;;
18740;SDS011;9499;52.472;13.448;2023-02-28T11:54:30;2.13;;;1.93;;
18740;SDS011;9499;52.472;13.448;2023-02-28T11:57:16;2.00;;;1.80;;
18740;SDS011;9499;52.472;13.448;2023-02-28T11:59:58;2.77;;;2.40;;
18740;SDS011;9499;52.472;13.448;2023-02-28T12:02:35;1.80;;;1.70;;
18740;SDS011;9499;52.472;13.448;2023-02-28T12:05:20;2.53;;;1.90;;
18740;SDS011;9499;52.472;13.448;2023-02-28T12:07:58;1.90;;;1.70;;
18740;SDS011;9499;52.472;13.448;2023-02-28T12:10:35;6.20;;;2.33;;
18740;SDS011;9499;52.472;13.448;2023-02-28T12:13:12;1.50;;;1.40;;
18740;SDS011;9499;52.472;13.448;2023-02-28T12:15:51;2.07;;;1.83;;
18740;SDS011;9499;52.472;13.448;2023-02-28T12:18:27;1.60;;;1.50;;
18740;SDS011;9499;52.472;13.448;2023-02-28T12:21:04;1.60;;;1.50;;
18740;SDS011;9499;52.472;13.448;2023-02-28T12:26:35;6.60;;;3.00;;
18740;SDS011;9499;52.472;13.448;2023-02-28T12:29:05;1.60;;;1.50;;
18740;SDS011;9499;52.472;13.448;2023-02-28T12:31:40;1.90;;;1.80;;
18740;SDS011;9499;52.472;13.448;2023-02-28T12:34:12;1.53;;;1.43;;
18740;SDS011;9499;52.472;13.448;2023-02-28T12:36:42;2.00;;;1.53;;
18740;SDS011;9499;52.472;13.448;2023-02-28T12:39:14;2.17;;;1.97;;
18740;SDS011;9499;52.472;13.448;2023-02-28T12:41:45;3.00;;;2.20;;
18740;SDS011;9499;52.472;13.448;2023-02-28T12:44:16;2.53;;;2.33;;
18740;SDS011;9499;52.472;13.448;2023-02-28T12:46:47;2.53;;;2.33;;
18740;SDS011;9499;52.472;13.448;2023-02-28T12:49:17;4.60;;;1.50;;
18740;SDS011;9499;52.472;13.448;2023-02-28T12:51:49;1.93;;;1.73;;
18740;SDS011;9499;52.472;13.448;2023-02-28T12:54:21;3.50;;;1.60;;
18740;SDS011;9499;52.472;13.448;2023-02-28T12:56:53;2.33;;;2.10;;
18740;SDS011;9499;52.472;13.448;2023-02-28T12:59:30;1.50;;;1.40;;
18740;SDS011;9499;52.472;13.448;2023-02-28T13:02:16;1.67;;;1.57;;
18740;SDS011;9499;52.472;13.448;2023-02-28T13:05:19;2.53;;;1.73;;
18740;SDS011;9499;52.472;13.448;2023-02-28T13:07:58;2.07;;;1.50;;
18740;SDS011;9499;52.472;13.448;2023-02-28T13:10:39;2.27;;;2.00;;
18740;SDS011;9499;52.472;13.448;2023-02-28T13:13:11;2.50;;;2.17;;
18740;SDS011;9499;52.472;13.448;2023-02-28T13:15:40;1.60;;;1.50;;
18740;SDS011;9499;52.472;13.448;2023-02-28T13:18:27;2.70;;;1.50;;
18740;SDS011;9499;52.472;13.448;2023-02-28T13:20:56;2.00;;;1.70;;
18740;SDS011;9499;52.472;13.448;2023-02-28T13:23:36;1.60;;;1.50;;
18740;SDS011;9499;52.472;13.448;2023-02-28T13:26:07;2.83;;;2.23;;
18740;SDS011;9499;52.472;13.448;2023-02-28T13:28:56;1.90;;;1.73;;
18740;SDS011;9499;52.472;13.448;2023-02-28T13:31:24;3.17;;;1.70;;
18740;SDS011;9499;52.472;13.448;2023-02-28T13:36:40;1.80;;;1.70;;
18740;SDS011;9499;52.472;13.448;2023-02-28T13:42:32;1.40;;;1.30;;
18740;SDS011;9499;52.472;13.448;2023-02-28T13:45:22;1.40;;;1.30;;
18740;SDS011;9499;52.472;13.448;2023-02-28T13:47:53;1.70;;;1.57;;
18740;SDS011;9499;52.472;13.448;2023-02-28T13:50:29;3.33;;;2.20;;
18740;SDS011;9499;52.472;13.448;2023-02-28T13:53:02;2.83;;;2.07;;
18740;SDS011;9499;52.472;13.448;2023-02-28T13:55:57;1.70;;;1.60;;
18740;SDS011;9499;52.472;13.448;2023-02-28T13:58:36;1.70;;;1.57;;
18740;SDS011;9499;52.472;13.448;2023-02-28T14:04:09;2.03;;;1.60;;
18740;SDS011;9499;52.472;13.448;2023-02-28T14:07:01;3.40;;;1.80;;
18740;SDS011;9499;52.472;13.448;2023-02-28T14:09:29;1.70;;;1.60;;
18740;SDS011;9499;52.472;13.448;2023-02-28T14:11:59;3.00;;;1.80;;
18740;SDS011;9499;52.472;13.448;2023-02-28T14:15:23;2.80;;;2.30;;
18740;SDS011;9499;52.472;13.448;2023-02-28T14:17:55;1.60;;;1.43;;
18740;SDS011;9499;52.472;13.448;2023-02-28T14:20:25;4.20;;;2.23;;
18740;SDS011;9499;52.472;13.448;2023-02-28T14:22:56;1.93;;;1.83;;
18740;SDS011;9499;52.472;13.448;2023-02-28T14:25:31;2.40;;;2.07;;
18740;SDS011;9499;52.472;13.448;2023-02-28T14:28:07;1.83;;;1.30;;
18740;SDS011;9499;52.472;13.448;2023-02-28T14:30:49;1.53;;;1.43;;
18740;SDS011;9499;52.472;13.448;2023-02-28T14:33:25;1.87;;;1.40;;
18740;SDS011;9499;52.472;13.448;2023-02-28T14:36:00;1.57;;;1.43;;
18740;SDS011;9499;52.472;13.448;2023-02-28T14:38:33;3.60;;;2.07;;
18740;SDS011;9499;52.472;13.448;2023-02-28T14:41:04;1.80;;;1.70;;
18740;SDS011;9499;52.472;13.448;2023-02-28T14:43:47;1.73;;;1.63;;
18740;SDS011;9499;52.472;13.448;2023-02-28T14:46:17;2.20;;;1.97;;
18740;SDS011;9499;52.472;13.448;2023-02-28T14:48:45;2.60;;;2.40;;
18740;SDS011;9499;52.472;13.448;2023-02-28T14:51:12;4.50;;;2.33;;
18740;SDS011;9499;52.472;13.448;2023-02-28T14:53:46;1.60;;;1.50;;
18740;SDS011;9499;52.472;13.448;2023-02-28T14:56:19;3.53;;;2.90;;
18740;SDS011;9499;52.472;13.448;2023-02-28T14:58:51;1.90;;;1.73;;
18740;SDS011;9499;52.472;13.448;2023-02-28T15:01:20;4.57;;;3.13;;
18740;SDS011;9499;52.472;13.448;2023-02-28T15:03:48;1.97;;;1.53;;
18740;SDS011;9499;52.472;13.448;2023-02-28T15:06:22;3.40;;;2.23;;
18740;SDS011;9499;52.472;13.448;2023-02-28T15:09:01;1.60;;;1.50;;
18740;SDS011;9499;52.472;13.448;2023-02-28T15:11:36;2.90;;;2.70;;
18740;SDS011;9499;52.472;13.448;2023-02-28T15:14:04;1.60;;;1.50;;
18740;SDS011;9499;52.472;13.448;2023-02-28T15:16:33;3.20;;;2.90;;
18740;SDS011;9499;52.472;13.448;2023-02-28T15:19:04;1.90;;;1.80;;
18740;SDS011;9499;52.472;13.448;2023-02-28T15:21:34;1.90;;;1.80;;
18740;SDS011;9499;52.472;13.448;2023-02-28T15:24:03;2.10;;;1.90;;
18740;SDS011;9499;52.472;13.448;2023-02-28T15:26:33;1.90;;;1.80;;
18740;SDS011;9499;52.472;13.448;2023-02-28T15:29:05;1.90;;;1.80;;
18740;SDS011;9499;52.472;13.448;2023-02-28T15:31:39;3.87;;;2.13;;